createdAt,value
2023-04-08T00:02:04.701Z,9.77
2023-04-08T00:04:32.328Z,9.20
2023-04-08T00:06:59.722Z,8.60
2023-04-08T00:09:26.964Z,10.13
2023-04-08T00:11:54.216Z,8.85
2023-04-08T00:14:21.657Z,9.75
2023-04-08T00:16:49.109Z,8.52
2023-04-08T00:19:16.713Z,8.88
2023-04-08T00:21:44.141Z,9.32
2023-04-08T00:24:11.655Z,9.75
2023-04-08T00:26:38.833Z,9.82
2023-04-08T00:29:06.145Z,9.93
2023-04-08T00:31:33.582Z,9.48
2023-04-08T00:34:01.630Z,9.05
2023-04-08T00:36:29.558Z,9.27
2023-04-08T00:38:57.436Z,8.07
2023-04-08T00:41:25.212Z,9.25
2023-04-08T00:43:52.917Z,8.60
2023-04-08T00:46:21.060Z,10.18
2023-04-08T00:48:48.599Z,8.77
2023-04-08T00:51:16.426Z,8.35
2023-04-08T00:53:43.750Z,8.55
2023-04-08T00:56:11.594Z,8.07
2023-04-08T00:58:39.517Z,9.13
2023-04-08T01:01:21.165Z,7.72
2023-04-08T01:04:19.356Z,8.45
2023-04-08T01:06:51.321Z,8.73
2023-04-08T01:09:21.414Z,8.02
2023-04-08T01:11:51.749Z,7.72
2023-04-08T01:14:23.464Z,8.18
2023-04-08T01:16:55.639Z,8.90
2023-04-08T01:19:35.203Z,8.38
2023-04-08T01:22:19.892Z,8.57
2023-04-08T01:24:50.236Z,8.38
2023-04-08T01:27:19.439Z,8.07
2023-04-08T01:29:48.555Z,8.82
2023-04-08T01:32:16.906Z,7.25
2023-04-08T01:34:45.249Z,8.07
2023-04-08T01:37:15.230Z,8.10
2023-04-08T01:39:43.254Z,9.32
2023-04-08T01:42:13.583Z,7.43
2023-04-08T01:44:42.243Z,8.00
2023-04-08T01:47:11.641Z,7.18
2023-04-08T01:49:39.754Z,7.50
2023-04-08T01:52:09.236Z,7.45
2023-04-08T01:54:36.702Z,7.47
2023-04-08T01:57:12.013Z,6.63
2023-04-08T01:59:41.023Z,8.18
2023-04-08T02:02:09.877Z,7.93
2023-04-08T02:04:37.354Z,7.93
2023-04-08T02:07:05.923Z,7.70
2023-04-08T02:09:33.191Z,7.35
2023-04-08T02:12:01.411Z,7.63
2023-04-08T02:14:29.453Z,6.27
2023-04-08T02:17:08.729Z,6.03
2023-04-08T02:19:52.623Z,5.70
2023-04-08T02:22:27.908Z,5.77
2023-04-08T02:24:56.766Z,5.13
2023-04-08T02:27:27.036Z,6.45
2023-04-08T02:29:55.774Z,4.70
2023-04-08T02:32:25.878Z,4.70
2023-04-08T02:34:54.508Z,5.45
2023-04-08T02:37:21.897Z,5.57
2023-04-08T02:39:49.217Z,4.80
2023-04-08T02:42:16.461Z,5.25
2023-04-08T02:44:43.749Z,5.00
2023-04-08T02:47:10.953Z,6.20
2023-04-08T02:49:38.272Z,5.75
2023-04-08T02:52:05.818Z,5.68
2023-04-08T02:54:33.050Z,6.23
2023-04-08T02:57:01.597Z,5.50
2023-04-08T02:59:28.828Z,6.53
2023-04-08T03:01:56.447Z,6.38
2023-04-08T03:04:23.778Z,5.53
2023-04-08T03:06:50.971Z,6.27
2023-04-08T03:09:18.245Z,6.47
2023-04-08T03:11:45.432Z,5.87
2023-04-08T03:14:12.875Z,5.78
2023-04-08T03:16:40.312Z,5.90
2023-04-08T03:19:07.675Z,7.27
2023-04-08T03:21:35.189Z,5.27
2023-04-08T03:24:02.646Z,6.07
2023-04-08T03:26:29.902Z,5.70
2023-04-08T03:28:57.196Z,6.40
2023-04-08T03:31:24.614Z,6.77
2023-04-08T03:33:51.926Z,5.33
2023-04-08T03:36:19.184Z,7.15
2023-04-08T03:38:46.687Z,7.30
2023-04-08T03:41:13.975Z,5.87
2023-04-08T03:43:41.280Z,6.13
2023-04-08T03:46:08.729Z,6.10
2023-04-08T03:48:36.104Z,6.87
2023-04-08T03:51:03.902Z,6.43
2023-04-08T03:53:31.168Z,6.60
2023-04-08T03:55:59.281Z,6.00
2023-04-08T03:58:26.797Z,6.43
2023-04-08T04:00:54.102Z,7.50
2023-04-08T04:03:21.691Z,6.83
2023-04-08T04:05:49.506Z,7.20
2023-04-08T04:08:16.868Z,6.13
2023-04-08T04:10:44.088Z,7.10
2023-04-08T04:13:11.351Z,7.00
2023-04-08T04:15:40.031Z,6.83
2023-04-08T04:18:08.257Z,7.03
2023-04-08T04:20:36.206Z,6.47
2023-04-08T04:23:03.457Z,6.50
2023-04-08T04:25:30.742Z,5.70
2023-04-08T04:27:58.098Z,6.17
2023-04-08T04:30:25.948Z,6.90
2023-04-08T04:32:53.258Z,6.17
2023-04-08T04:35:20.621Z,6.33
2023-04-08T04:37:50.068Z,6.03
2023-04-08T04:40:17.574Z,5.50
2023-04-08T04:42:44.804Z,6.77
2023-04-08T04:45:12.552Z,5.60
2023-04-08T04:47:39.848Z,5.67
2023-04-08T04:50:07.647Z,6.80
2023-04-08T04:52:36.848Z,7.53
2023-04-08T04:55:04.647Z,6.80
2023-04-08T04:57:31.861Z,7.07
2023-04-08T04:59:59.705Z,7.23
2023-04-08T05:02:27.154Z,7.43
2023-04-08T05:04:55.651Z,7.30
2023-04-08T05:07:22.932Z,7.20
2023-04-08T05:09:50.719Z,7.73
2023-04-08T05:12:18.021Z,8.10
2023-04-08T05:14:46.173Z,8.47
2023-04-08T05:17:13.448Z,7.50
2023-04-08T05:19:40.707Z,7.33
2023-04-08T05:22:07.905Z,7.40
2023-04-08T05:24:36.350Z,7.87
2023-04-08T05:27:03.651Z,7.50
2023-04-08T05:29:30.866Z,8.47
2023-04-08T05:31:58.166Z,8.53
2023-04-08T05:34:25.437Z,8.00
2023-04-08T05:36:52.904Z,7.47
2023-04-08T05:39:20.562Z,8.00
2023-04-08T05:41:47.928Z,6.90
2023-04-08T05:44:15.476Z,7.77
2023-04-08T05:46:42.990Z,7.30
2023-04-08T05:49:10.346Z,8.90
2023-04-08T05:51:38.524Z,8.40
2023-04-08T05:54:05.906Z,8.77
2023-04-08T05:56:33.080Z,7.93
2023-04-08T05:59:00.540Z,7.80
2023-04-08T06:01:27.842Z,7.70
2023-04-08T06:03:58.158Z,8.13
2023-04-08T06:06:26.082Z,7.90
2023-04-08T06:08:53.336Z,7.27
2023-04-08T06:11:20.665Z,6.97
2023-04-08T06:13:48.168Z,8.83
2023-04-08T06:16:21.149Z,6.87
2023-04-08T06:18:49.716Z,7.57
2023-04-08T06:21:17.461Z,7.53
2023-04-08T06:23:44.937Z,7.77
2023-04-08T06:26:13.219Z,8.33
2023-04-08T06:28:40.812Z,6.60
2023-04-08T06:31:08.175Z,6.77
2023-04-08T06:33:35.604Z,8.17
2023-04-08T06:36:08.096Z,8.17
2023-04-08T06:38:35.622Z,8.10
2023-04-08T06:41:07.041Z,7.77
2023-04-08T06:43:35.500Z,6.97
2023-04-08T06:46:03.129Z,7.63
2023-04-08T06:48:30.901Z,7.37
2023-04-08T06:51:00.398Z,7.40
2023-04-08T06:53:32.768Z,6.93
2023-04-08T06:56:00.706Z,6.83
2023-04-08T06:58:27.923Z,6.60
2023-04-08T07:00:56.368Z,6.93
2023-04-08T07:03:24.160Z,8.43
2023-04-08T07:05:52.148Z,7.90
2023-04-08T07:08:19.440Z,7.00
2023-04-08T07:10:46.747Z,7.10
2023-04-08T07:13:14.115Z,6.47
2023-04-08T07:15:41.526Z,6.53
2023-04-08T07:18:08.995Z,6.70
2023-04-08T07:20:38.295Z,6.85
2023-04-08T07:23:05.808Z,6.07
2023-04-08T07:25:37.343Z,6.63
2023-04-08T07:28:04.685Z,6.13
2023-04-08T07:30:32.070Z,6.33
2023-04-08T07:33:00.912Z,6.00
2023-04-08T07:35:29.056Z,5.63
2023-04-08T07:37:57.577Z,4.63
2023-04-08T07:40:24.971Z,6.85
2023-04-08T07:42:52.334Z,5.07
2023-04-08T07:45:20.262Z,5.45
2023-04-08T07:47:47.700Z,5.15
2023-04-08T07:50:15.118Z,5.50
2023-04-08T07:52:42.366Z,5.85
2023-04-08T07:55:10.013Z,5.15
2023-04-08T07:57:37.600Z,5.13
2023-04-08T08:00:05.685Z,5.18
2023-04-08T08:02:40.623Z,5.63
2023-04-08T08:05:08.381Z,5.25
2023-04-08T08:07:36.319Z,4.88
2023-04-08T08:10:03.767Z,4.78
2023-04-08T08:12:31.319Z,3.78
2023-04-08T08:14:59.136Z,4.72
2023-04-08T08:17:30.088Z,4.05
2023-04-08T08:19:57.835Z,3.75
2023-04-08T08:22:25.410Z,3.60
2023-04-08T08:24:58.182Z,3.83
2023-04-08T08:27:26.190Z,3.13
2023-04-08T08:29:53.481Z,3.65
2023-04-08T08:32:21.042Z,3.60
2023-04-08T08:34:48.416Z,3.15
2023-04-08T08:37:16.008Z,3.10
2023-04-08T08:39:43.363Z,2.60
2023-04-08T08:42:24.356Z,2.80
2023-04-08T08:44:51.917Z,3.17
2023-04-08T08:47:19.358Z,3.58
2023-04-08T08:49:48.228Z,2.92
2023-04-08T08:52:18.712Z,3.00
2023-04-08T08:54:46.334Z,3.30
2023-04-08T08:57:22.583Z,3.25
2023-04-08T08:59:50.150Z,2.80
2023-04-08T09:02:29.750Z,2.75
2023-04-08T09:05:02.282Z,3.97
2023-04-08T09:07:31.772Z,3.60
2023-04-08T09:09:59.536Z,3.03
2023-04-08T09:12:31.302Z,3.47
2023-04-08T09:15:09.251Z,3.60
2023-04-08T09:17:41.278Z,3.28
2023-04-08T09:20:13.646Z,3.58
2023-04-08T09:23:01.004Z,3.15
2023-04-08T09:25:32.746Z,3.03
2023-04-08T09:28:02.141Z,3.53
2023-04-08T09:30:32.279Z,3.60
2023-04-08T09:33:01.289Z,4.03
2023-04-08T09:35:28.956Z,2.70
2023-04-08T09:37:56.480Z,3.63
2023-04-08T09:40:26.407Z,3.40
2023-04-08T09:42:56.152Z,3.58
2023-04-08T09:45:25.729Z,3.65
2023-04-08T09:48:02.355Z,3.85
2023-04-08T09:50:36.369Z,3.78
2023-04-08T09:53:15.652Z,3.90
2023-04-08T09:55:45.440Z,3.53
2023-04-08T09:58:17.947Z,3.60
2023-04-08T10:00:51.372Z,3.60
2023-04-08T10:03:25.138Z,3.90
2023-04-08T10:05:53.846Z,3.65
2023-04-08T10:08:22.078Z,3.30
2023-04-08T10:10:50.381Z,2.92
2023-04-08T10:13:18.348Z,2.85
2023-04-08T10:15:47.554Z,3.10
2023-04-08T10:18:18.095Z,3.15
2023-04-08T10:20:47.441Z,3.30
2023-04-08T10:23:16.695Z,2.85
2023-04-08T10:25:48.535Z,3.13
2023-04-08T10:28:17.821Z,3.67
2023-04-08T10:30:46.542Z,3.58
2023-04-08T10:33:16.243Z,2.88
2023-04-08T10:35:48.638Z,3.03
2023-04-08T10:38:17.553Z,3.22
2023-04-08T10:40:45.968Z,2.63
2023-04-08T10:43:14.365Z,3.03
2023-04-08T10:45:43.067Z,3.10
2023-04-08T10:48:22.664Z,3.55
2023-04-08T10:50:56.436Z,3.00
2023-04-08T10:53:35.362Z,2.20
2023-04-08T10:56:08.481Z,2.25
2023-04-08T10:58:37.027Z,3.30
2023-04-08T11:01:07.109Z,2.42
2023-04-08T11:03:35.616Z,2.45
2023-04-08T11:06:03.912Z,2.70
2023-04-08T11:08:36.705Z,2.22
2023-04-08T11:11:09.134Z,2.40
2023-04-08T11:13:52.801Z,2.10
2023-04-08T11:16:24.273Z,1.73
2023-04-08T11:18:51.929Z,1.95
2023-04-08T11:21:19.591Z,2.42
2023-04-08T11:23:50.068Z,2.95
2023-04-08T11:26:18.410Z,3.13
2023-04-08T11:28:49.066Z,2.72
2023-04-08T11:31:17.861Z,3.08
2023-04-08T11:33:47.575Z,3.22
2023-04-08T11:36:17.883Z,3.35
2023-04-08T11:38:47.745Z,3.30
2023-04-08T11:41:16.180Z,2.30
2023-04-08T11:43:57.050Z,3.10
2023-04-08T11:46:25.082Z,3.50
2023-04-08T11:49:06.860Z,2.97
2023-04-08T11:51:35.470Z,2.95
2023-04-08T11:54:07.518Z,3.20
2023-04-08T11:56:45.878Z,2.88
2023-04-08T11:59:13.154Z,3.45
2023-04-08T12:01:40.572Z,3.55
2023-04-08T12:04:10.350Z,3.85
2023-04-08T12:06:37.980Z,3.17
2023-04-08T12:09:05.228Z,3.42
2023-04-08T12:11:32.541Z,3.63
2023-04-08T12:13:59.806Z,2.80
2023-04-08T12:16:27.156Z,2.85
2023-04-08T12:18:55.069Z,2.90
2023-04-08T12:21:22.408Z,2.90
2023-04-08T12:23:50.149Z,2.70
2023-04-08T12:26:18.048Z,2.88
2023-04-08T12:28:45.862Z,3.13
2023-04-08T12:31:13.168Z,2.75
2023-04-08T12:33:40.975Z,2.88
2023-04-08T12:36:08.254Z,3.38
2023-04-08T12:38:35.451Z,3.33
2023-04-08T12:41:02.736Z,2.40
2023-04-08T12:43:31.989Z,2.63
2023-04-08T12:45:59.302Z,2.28
2023-04-08T12:48:26.506Z,1.92
2023-04-08T12:50:53.823Z,2.30
2023-04-08T12:53:21.157Z,2.35
2023-04-08T12:55:49.236Z,2.97
2023-04-08T12:58:17.223Z,2.15
2023-04-08T13:00:46.570Z,2.70
2023-04-08T13:03:17.148Z,2.28
2023-04-08T13:05:44.892Z,2.47
2023-04-08T13:08:12.379Z,2.65
2023-04-08T13:10:40.278Z,2.75
2023-04-08T13:13:07.980Z,2.33
2023-04-08T13:15:35.414Z,2.22
2023-04-08T13:18:03.007Z,2.50
2023-04-08T13:20:30.572Z,1.85
2023-04-08T13:22:57.988Z,2.40
2023-04-08T13:25:25.327Z,1.90
2023-04-08T13:27:52.724Z,2.10
2023-04-08T13:30:20.333Z,2.15
2023-04-08T13:32:47.616Z,2.03
2023-04-08T13:35:15.003Z,1.73
2023-04-08T13:37:42.332Z,1.60
2023-04-08T13:40:10.179Z,1.98
2023-04-08T13:42:37.470Z,1.90
2023-04-08T13:45:05.612Z,2.17
2023-04-08T13:47:34.242Z,2.28
2023-04-08T13:50:02.942Z,2.08
2023-04-08T13:52:30.491Z,1.73
2023-04-08T13:54:57.938Z,2.40
2023-04-08T13:57:25.336Z,2.35
2023-04-08T13:59:52.969Z,2.38
2023-04-08T14:02:20.287Z,2.08
2023-04-08T14:04:47.860Z,1.98
2023-04-08T14:07:15.290Z,2.42
2023-04-08T14:09:42.741Z,2.67
2023-04-08T14:12:10.186Z,2.88
2023-04-08T14:14:37.458Z,2.67
2023-04-08T14:17:04.690Z,3.92
2023-04-08T14:19:32.173Z,4.05
2023-04-08T14:21:59.373Z,3.15
2023-04-08T14:24:27.025Z,4.38
2023-04-08T14:26:54.295Z,4.22
2023-04-08T14:29:21.553Z,4.00
2023-04-08T14:31:48.746Z,3.95
2023-04-08T14:34:16.300Z,4.82
2023-04-08T14:36:43.922Z,4.28
2023-04-08T14:39:12.169Z,5.25
2023-04-08T14:41:39.451Z,4.78
2023-04-08T14:44:06.704Z,4.72
2023-04-08T14:46:34.394Z,4.80
2023-04-08T14:49:01.775Z,5.25
2023-04-08T14:51:30.152Z,5.15
2023-04-08T14:53:57.517Z,4.40
2023-04-08T14:56:24.864Z,6.95
2023-04-08T14:58:52.450Z,9.43
2023-04-08T15:01:20.123Z,9.80
2023-04-08T15:03:47.945Z,10.57
2023-04-08T15:06:17.669Z,10.30
2023-04-08T15:08:45.767Z,10.52
2023-04-08T15:11:13.306Z,8.93
2023-04-08T15:13:40.965Z,10.55
2023-04-08T15:16:08.464Z,10.38
2023-04-08T15:18:37.134Z,10.02
2023-04-08T15:21:04.525Z,10.70
2023-04-08T15:23:31.825Z,9.45
2023-04-08T15:25:59.282Z,9.93
2023-04-08T15:28:27.416Z,10.25
2023-04-08T15:30:54.906Z,11.20
2023-04-08T15:33:22.221Z,10.13
2023-04-08T15:35:49.530Z,10.07
2023-04-08T15:38:17.638Z,10.88
2023-04-08T15:40:47.412Z,11.27
2023-04-08T15:43:15.668Z,10.93
2023-04-08T15:45:44.199Z,11.57
2023-04-08T15:48:11.798Z,10.15
2023-04-08T15:50:39.103Z,9.50
2023-04-08T15:53:06.597Z,9.68
2023-04-08T15:55:41.222Z,9.50
2023-04-08T15:58:08.625Z,9.38
2023-04-08T16:00:35.992Z,9.55
2023-04-08T16:03:05.470Z,8.88
2023-04-08T16:05:35.812Z,9.02
2023-04-08T16:08:04.470Z,10.02
2023-04-08T16:10:31.974Z,9.95
2023-04-08T16:12:59.218Z,8.82
2023-04-08T16:15:26.666Z,8.63
2023-04-08T16:17:54.357Z,9.57
2023-04-08T16:20:21.693Z,8.43
2023-04-08T16:22:50.123Z,9.32
2023-04-08T16:25:17.751Z,8.60
2023-04-08T16:27:45.114Z,8.30
2023-04-08T16:30:12.635Z,9.13
2023-04-08T16:32:40.429Z,8.45
2023-04-08T16:35:08.472Z,8.18
2023-04-08T16:37:35.920Z,9.02
2023-04-08T16:40:03.854Z,8.48
2023-04-08T16:42:32.805Z,8.15
2023-04-08T16:45:01.087Z,8.05
2023-04-08T16:47:28.870Z,8.23
2023-04-08T16:49:56.280Z,7.63
2023-04-08T16:52:23.672Z,6.85
2023-04-08T16:54:52.314Z,7.15
2023-04-08T16:57:19.673Z,6.38
2023-04-08T16:59:47.132Z,7.88
2023-04-08T17:02:14.815Z,6.25
2023-04-08T17:04:42.277Z,8.07
2023-04-08T17:07:09.627Z,7.32
2023-04-08T17:09:37.403Z,6.55
2023-04-08T17:12:04.821Z,8.32
2023-04-08T17:14:33.688Z,7.45
2023-04-08T17:17:01.240Z,8.10
2023-04-08T17:19:28.477Z,6.90
2023-04-08T17:21:55.715Z,8.32
2023-04-08T17:24:23.066Z,8.05
2023-04-08T17:26:50.712Z,8.73
2023-04-08T17:29:18.352Z,8.00
2023-04-08T17:31:45.982Z,8.73
2023-04-08T17:34:13.232Z,7.85
2023-04-08T17:36:40.586Z,6.88
2023-04-08T17:39:07.966Z,7.22
2023-04-08T17:41:41.288Z,7.30
2023-04-08T17:44:09.450Z,7.75
2023-04-08T17:46:37.192Z,7.80
2023-04-08T17:49:04.494Z,7.20
2023-04-08T17:51:32.044Z,6.50
2023-04-08T17:53:59.643Z,6.93
2023-04-08T17:56:28.146Z,7.78
2023-04-08T17:58:55.639Z,7.25
2023-04-08T18:01:23.158Z,8.00
2023-04-08T18:03:53.672Z,8.50
2023-04-08T18:06:21.206Z,8.07
2023-04-08T18:08:48.600Z,8.15
2023-04-08T18:11:16.010Z,7.95
2023-04-08T18:13:43.490Z,8.27
2023-04-08T18:16:18.223Z,7.43
2023-04-08T18:18:45.736Z,8.05
2023-04-08T18:21:15.081Z,7.90
2023-04-08T18:23:42.563Z,7.45
2023-04-08T18:26:10.728Z,7.22
2023-04-08T18:28:38.128Z,7.50
2023-04-08T18:31:06.287Z,7.32
2023-04-08T18:33:33.770Z,7.65
2023-04-08T18:36:12.462Z,7.82
2023-04-08T18:38:40.879Z,7.53
2023-04-08T18:41:08.683Z,7.75
2023-04-08T18:43:36.145Z,8.90
2023-04-08T18:46:04.740Z,7.78
2023-04-08T18:48:33.105Z,6.60
2023-04-08T18:51:01.718Z,7.15
2023-04-08T18:53:29.052Z,8.15
2023-04-08T18:55:56.401Z,8.60
2023-04-08T18:58:23.651Z,7.93
2023-04-08T19:00:50.987Z,9.20
2023-04-08T19:03:18.435Z,8.05
2023-04-08T19:05:46.488Z,7.97
2023-04-08T19:08:13.901Z,8.07
2023-04-08T19:10:41.273Z,7.93
2023-04-08T19:13:08.685Z,8.75
2023-04-08T19:15:37.224Z,9.20
2023-04-08T19:18:05.566Z,9.10
2023-04-08T19:20:33.586Z,9.13
2023-04-08T19:23:01.236Z,8.15
2023-04-08T19:25:28.498Z,8.90
2023-04-08T19:27:56.260Z,8.60
2023-04-08T19:30:23.929Z,8.35
2023-04-08T19:32:51.650Z,7.82
2023-04-08T19:35:18.908Z,9.18
2023-04-08T19:37:46.306Z,8.73
2023-04-08T19:40:13.571Z,10.57
2023-04-08T19:42:40.985Z,8.50
2023-04-08T19:45:10.760Z,9.77
2023-04-08T19:47:43.099Z,10.70
2023-04-08T19:50:11.957Z,10.43
2023-04-08T19:52:39.433Z,10.32
2023-04-08T19:55:07.978Z,10.20
2023-04-08T19:57:35.614Z,11.07
2023-04-08T20:00:04.697Z,11.20
2023-04-08T20:02:34.047Z,11.07
2023-04-08T20:05:02.244Z,9.90
2023-04-08T20:07:29.749Z,12.05
2023-04-08T20:09:57.193Z,10.70
2023-04-08T20:12:24.554Z,12.20
2023-04-08T20:14:51.803Z,11.52
2023-04-08T20:17:20.794Z,11.80
2023-04-08T20:19:48.206Z,9.93
2023-04-08T20:22:15.895Z,11.32
2023-04-08T20:24:43.354Z,11.43
2023-04-08T20:27:10.902Z,11.25
2023-04-08T20:29:38.266Z,12.77
2023-04-08T20:32:05.710Z,11.52
2023-04-08T20:34:33.182Z,12.75
2023-04-08T20:37:01.564Z,10.85
2023-04-08T20:39:29.782Z,10.77
2023-04-08T20:42:00.841Z,11.30
2023-04-08T20:44:28.410Z,9.57
2023-04-08T20:46:55.720Z,10.27
2023-04-08T20:49:23.045Z,9.75
2023-04-08T20:51:50.491Z,10.25
2023-04-08T20:54:17.702Z,10.43
2023-04-08T20:56:45.310Z,10.35
2023-04-08T20:59:12.695Z,8.80
2023-04-08T21:01:40.044Z,10.02
2023-04-08T21:04:07.426Z,10.20
2023-04-08T21:06:37.530Z,10.95
2023-04-08T21:09:05.188Z,10.50
2023-04-08T21:11:32.608Z,10.88
2023-04-08T21:14:00.129Z,10.45
2023-04-08T21:16:28.941Z,11.55
2023-04-08T21:18:58.225Z,12.70
2023-04-08T21:21:25.629Z,12.93
2023-04-08T21:23:53.150Z,11.75
2023-04-08T21:26:21.751Z,10.60
2023-04-08T21:28:50.088Z,11.75
2023-04-08T21:31:17.958Z,11.68
2023-04-08T21:33:45.574Z,12.60
2023-04-08T21:36:12.864Z,12.50
2023-04-08T21:38:41.907Z,12.65
2023-04-08T21:41:09.128Z,12.50
2023-04-08T21:43:36.601Z,14.38
2023-04-08T21:46:04.128Z,13.90
2023-04-08T21:48:31.802Z,13.13
2023-04-08T21:50:59.273Z,12.20
2023-04-08T21:53:26.808Z,13.43
2023-04-08T21:55:54.251Z,12.40
2023-04-08T21:58:21.883Z,12.55
2023-04-08T22:00:50.530Z,12.93
2023-04-08T22:03:17.913Z,13.80
2023-04-08T22:05:45.650Z,12.68
2023-04-08T22:08:13.089Z,12.90
2023-04-08T22:10:40.585Z,13.45
2023-04-08T22:13:07.944Z,13.77
2023-04-08T22:15:35.277Z,15.80
2023-04-08T22:18:04.666Z,14.75
2023-04-08T22:20:32.042Z,14.10
2023-04-08T22:22:59.331Z,13.00
2023-04-08T22:25:26.676Z,14.68
2023-04-08T22:27:53.969Z,13.48
2023-04-08T22:30:21.399Z,14.50
2023-04-08T22:32:48.825Z,14.65
2023-04-08T22:35:16.589Z,13.82
2023-04-08T22:37:43.809Z,14.13
2023-04-08T22:40:11.267Z,15.15
2023-04-08T22:42:38.699Z,16.75
2023-04-08T22:45:06.821Z,14.93
2023-04-08T22:47:34.214Z,15.38
2023-04-08T22:50:01.644Z,15.43
2023-04-08T22:52:28.866Z,16.45
2023-04-08T22:54:56.107Z,14.65
2023-04-08T22:57:23.441Z,15.02
2023-04-08T22:59:50.651Z,15.02
2023-04-08T23:02:18.110Z,14.10
2023-04-08T23:04:45.808Z,14.73
2023-04-08T23:07:13.125Z,14.82
2023-04-08T23:09:40.437Z,15.02
2023-04-08T23:12:07.861Z,14.85
2023-04-08T23:14:35.191Z,14.07
2023-04-08T23:17:04.976Z,14.38
2023-04-08T23:19:32.702Z,13.23
2023-04-08T23:22:00.221Z,14.52
2023-04-08T23:24:27.433Z,14.25
2023-04-08T23:26:54.699Z,13.13
2023-04-08T23:29:22.008Z,14.45
2023-04-08T23:31:49.404Z,13.38
2023-04-08T23:34:16.774Z,13.35
2023-04-08T23:36:44.096Z,11.48
2023-04-08T23:39:11.497Z,11.43
2023-04-08T23:41:41.722Z,12.32
2023-04-08T23:44:09.061Z,12.85
2023-04-08T23:46:36.363Z,13.55
2023-04-08T23:49:03.796Z,13.55
2023-04-08T23:51:31.479Z,12.82
2023-04-08T23:53:59.144Z,12.43
2023-04-08T23:56:26.393Z,11.60
2023-04-08T23:58:53.987Z,11.85
